createdAt,value
2019-05-15T00:03:13.701Z,53.60
2019-05-15T00:08:18.334Z,54.00
2019-05-15T00:13:18.945Z,53.60
2019-05-15T00:18:21.550Z,53.90
2019-05-15T00:23:24.084Z,54.30
2019-05-15T00:28:28.059Z,53.10
2019-05-15T00:33:29.313Z,54.20
2019-05-15T00:38:31.817Z,53.10
2019-05-15T00:43:34.377Z,54.20
2019-05-15T00:48:39.486Z,53.90
2019-05-15T00:53:39.606Z,53.00
2019-05-15T00:58:42.160Z,53.90
2019-05-15T01:03:44.789Z,54.20
2019-05-15T01:08:48.299Z,53.50
2019-05-15T01:13:49.957Z,54.20
2019-05-15T01:18:52.683Z,53.70
2019-05-15T01:23:55.281Z,53.80
2019-05-15T01:28:58.441Z,53.90
2019-05-15T01:34:00.417Z,53.40
2019-05-15T01:39:04.911Z,53.20
2019-05-15T01:44:08.812Z,53.40
2019-05-15T01:49:10.069Z,53.20
2019-05-15T01:54:12.579Z,53.00
2019-05-15T01:59:15.138Z,52.80
2019-05-15T02:04:19.679Z,52.80
2019-05-15T02:09:20.383Z,52.90
2019-05-15T02:14:22.955Z,52.90
2019-05-15T02:19:25.549Z,52.90
2019-05-15T02:24:30.298Z,52.90
2019-05-15T02:29:32.841Z,53.00
2019-05-15T02:34:35.417Z,53.20
2019-05-15T02:39:38.926Z,53.50
2019-05-15T02:44:40.513Z,53.30
2019-05-15T02:49:43.009Z,52.50
2019-05-15T02:54:45.548Z,52.70
2019-05-15T02:59:49.767Z,52.60
2019-05-15T03:04:53.462Z,54.00
2019-05-15T03:09:56.033Z,52.90
2019-05-15T03:14:59.833Z,53.00
2019-05-15T03:20:01.247Z,52.80
2019-05-15T03:25:04.759Z,53.20
2019-05-15T03:30:13.831Z,53.40
2019-05-15T03:35:14.357Z,52.90
2019-05-15T03:40:12.994Z,52.60
2019-05-15T03:45:19.045Z,52.70
2019-05-15T03:50:19.427Z,52.60
2019-05-15T03:55:20.824Z,53.20
2019-05-15T04:00:23.452Z,53.00
2019-05-15T04:05:29.150Z,52.80
2019-05-15T04:10:28.976Z,51.80
2019-05-15T04:15:31.252Z,52.20
2019-05-15T04:20:33.907Z,52.90
2019-05-15T04:25:39.162Z,53.20
2019-05-15T04:30:39.526Z,52.60
2019-05-15T04:35:41.914Z,53.30
2019-05-15T04:40:44.516Z,52.70
2019-05-15T04:45:49.757Z,51.90
2019-05-15T04:50:49.979Z,51.70
2019-05-15T04:55:52.395Z,50.90
2019-05-15T05:00:55.066Z,50.70
2019-05-15T05:05:59.119Z,52.20
2019-05-15T05:11:01.022Z,51.00
2019-05-15T05:16:03.588Z,51.80
2019-05-15T05:21:07.752Z,50.40
2019-05-15T05:26:11.109Z,50.20
2019-05-15T05:31:14.098Z,50.40
2019-05-15T05:36:14.067Z,50.60
2019-05-15T05:41:18.839Z,49.60
2019-05-15T05:46:19.229Z,50.40
2019-05-15T05:51:21.859Z,50.40
2019-05-15T05:56:24.406Z,50.30
2019-05-15T06:01:28.251Z,51.70
2019-05-15T06:06:29.605Z,50.60
2019-05-15T06:11:32.251Z,49.40
2019-05-15T06:16:34.785Z,50.40
2019-05-15T06:21:39.233Z,50.40
2019-05-15T06:26:39.976Z,49.00
2019-05-15T06:31:42.645Z,49.70
2019-05-15T06:36:45.214Z,48.70
2019-05-15T06:41:48.383Z,49.80
2019-05-15T06:46:50.476Z,49.10
2019-05-15T06:51:52.971Z,50.30
2019-05-15T06:56:58.175Z,49.50
2019-05-15T07:01:59.388Z,49.60
2019-05-15T07:07:00.802Z,50.60
2019-05-15T07:12:03.401Z,48.80
2019-05-15T07:17:08.864Z,48.80
2019-05-15T07:22:09.395Z,47.40
2019-05-15T07:27:11.240Z,47.10
2019-05-15T07:32:13.785Z,48.60
2019-05-15T07:37:18.850Z,47.80
2019-05-15T07:42:19.050Z,48.20
2019-05-15T07:47:21.701Z,47.80
2019-05-15T07:52:24.191Z,46.40
2019-05-15T07:57:29.708Z,45.90
2019-05-15T08:02:29.338Z,50.60
2019-05-15T08:07:32.935Z,46.70
2019-05-15T08:12:35.533Z,47.90
2019-05-15T08:17:59.200Z,45.60
2019-05-15T08:22:40.741Z,46.10
2019-05-15T08:27:43.289Z,45.60
2019-05-15T08:32:49.073Z,44.70
2019-05-15T08:37:49.272Z,45.80
2019-05-15T08:42:56.668Z,43.40
2019-05-15T08:47:54.671Z,44.50
2019-05-15T08:52:57.898Z,43.90
2019-05-15T08:58:07.386Z,43.90
2019-05-15T09:03:03.005Z,42.70
2019-05-15T09:08:05.716Z,43.00
2019-05-15T09:13:09.571Z,44.00
2019-05-15T09:18:15.952Z,41.50
2019-05-15T09:23:14.413Z,41.40
2019-05-15T09:28:18.894Z,42.70
2019-05-15T09:33:20.256Z,41.60
2019-05-15T09:38:22.235Z,41.80
2019-05-15T09:43:24.837Z,40.60
2019-05-15T09:48:28.657Z,43.10
2019-05-15T09:53:30.051Z,41.80
2019-05-15T09:58:35.101Z,40.20
2019-05-15T10:03:39.609Z,43.50
2019-05-15T10:08:40.293Z,40.20
2019-05-15T10:13:42.958Z,38.70
2019-05-15T10:18:50.448Z,38.20
2019-05-15T10:23:49.377Z,39.00
2019-05-15T10:28:53.774Z,39.20
2019-05-15T10:33:58.280Z,38.70
2019-05-15T10:38:59.372Z,37.80
2019-05-15T10:44:01.967Z,36.90
2019-05-15T10:49:04.562Z,35.30
2019-05-15T10:54:08.598Z,37.10
2019-05-15T10:59:09.849Z,34.70
2019-05-15T11:04:12.424Z,35.30
2019-05-15T11:09:15.129Z,36.40
2019-05-15T11:14:18.428Z,32.20
2019-05-15T11:19:20.355Z,35.40
2019-05-15T11:24:23.059Z,37.20
2019-05-15T11:29:26.043Z,36.20
2019-05-15T11:34:29.159Z,34.70
2019-05-15T11:39:31.158Z,33.10
2019-05-15T11:44:33.764Z,35.80
2019-05-15T11:49:38.370Z,34.40
2019-05-15T11:54:39.044Z,36.90
2019-05-15T11:59:45.361Z,35.10
2019-05-15T12:04:45.335Z,36.00
2019-05-15T12:09:47.909Z,36.90
2019-05-15T12:14:50.427Z,36.00
2019-05-15T12:19:55.310Z,37.10
2019-05-15T12:24:55.577Z,37.60
2019-05-15T12:29:59.994Z,37.70
2019-05-15T12:35:00.841Z,36.40
2019-05-15T13:00:14.495Z,38.80
2019-05-15T13:05:19.254Z,38.40
2019-05-15T13:10:19.761Z,39.80
2019-05-15T13:15:22.373Z,39.30
2019-05-15T13:20:24.941Z,38.90
2019-05-15T13:25:28.089Z,42.10
2019-05-15T13:30:30.352Z,40.70
2019-05-15T13:35:32.874Z,40.60
2019-05-15T13:40:38.939Z,39.10
2019-05-15T13:45:38.607Z,40.20
2019-05-15T13:50:40.928Z,39.50
2019-05-15T13:55:43.521Z,40.70
2019-05-15T14:00:48.970Z,42.30
2019-05-15T14:05:49.729Z,40.20
2019-05-15T14:10:51.380Z,40.60
2019-05-15T14:15:54.015Z,39.10
2019-05-15T14:20:58.480Z,38.00
2019-05-15T14:26:13.079Z,38.70
2019-05-15T14:31:03.076Z,41.00
2019-05-15T14:36:12.836Z,41.40
2019-05-15T14:41:15.459Z,40.90
2019-05-15T14:46:18.568Z,41.50
2019-05-15T14:51:20.759Z,41.90
2019-05-15T14:56:23.337Z,43.70
2019-05-15T15:01:25.905Z,43.20
2019-05-15T15:06:28.545Z,43.10
2019-05-15T15:11:31.183Z,42.60
2019-05-15T15:16:33.788Z,42.60
2019-05-15T15:21:38.501Z,42.90
2019-05-15T15:26:39.404Z,43.20
2019-05-15T15:31:41.612Z,45.30
2019-05-15T15:36:44.190Z,45.20
2019-05-15T15:41:48.563Z,44.90
2019-05-15T15:46:49.308Z,43.90
2019-05-15T15:51:51.871Z,43.80
2019-05-15T15:56:54.523Z,44.90
2019-05-15T16:01:59.689Z,42.40
2019-05-15T16:06:59.781Z,43.90
2019-05-15T16:12:02.384Z,43.20
2019-05-15T16:17:05.070Z,42.80
2019-05-15T16:22:08.781Z,42.50
2019-05-15T16:27:10.315Z,43.00
2019-05-15T16:32:12.843Z,42.70
2019-05-15T16:37:15.471Z,43.10
2019-05-15T16:42:18.172Z,43.80
2019-05-15T16:47:20.701Z,43.70
2019-05-15T16:52:23.260Z,44.70
2019-05-15T16:57:28.030Z,46.00
2019-05-15T17:02:28.478Z,47.70
2019-05-15T17:07:31.096Z,46.20
2019-05-15T17:12:33.669Z,45.50
2019-05-15T17:17:38.385Z,47.70
2019-05-15T17:22:38.912Z,46.50
2019-05-15T17:27:41.515Z,48.90
2019-05-15T17:32:44.377Z,45.40
2019-05-15T17:37:48.732Z,46.20
2019-05-15T17:42:49.577Z,45.60
2019-05-15T17:47:52.172Z,44.60
2019-05-15T17:52:54.790Z,44.60
2019-05-15T17:58:00.699Z,46.80
2019-05-15T18:03:00.032Z,47.70
2019-05-15T18:08:02.606Z,46.40
2019-05-15T18:13:05.296Z,48.90
2019-05-15T18:18:09.454Z,47.90
2019-05-15T18:23:10.506Z,48.60
2019-05-15T18:28:13.111Z,50.30
2019-05-15T18:33:15.807Z,49.20
2019-05-15T18:38:19.099Z,48.50
2019-05-15T18:43:21.125Z,48.50
2019-05-15T18:48:23.701Z,48.10
2019-05-15T18:53:28.257Z,49.00
2019-05-15T18:58:28.904Z,48.70
2019-05-15T19:03:31.516Z,49.80
2019-05-15T19:08:34.915Z,49.00
2019-05-15T19:13:38.963Z,48.60
2019-05-15T19:18:40.130Z,48.60
2019-05-15T19:23:42.739Z,49.50
2019-05-15T19:28:45.314Z,51.20
2019-05-15T19:33:47.922Z,49.70
2019-05-15T19:38:50.575Z,49.70
2019-05-15T19:43:53.225Z,49.50
2019-05-15T19:48:57.998Z,50.40
2019-05-15T19:53:58.890Z,49.70
2019-05-15T19:59:01.229Z,49.70
2019-05-15T20:04:03.866Z,49.50
2019-05-15T20:09:07.749Z,49.60
2019-05-15T20:14:09.752Z,49.90
2019-05-15T20:19:12.513Z,50.10
2019-05-15T20:24:15.129Z,50.10
2019-05-15T20:29:18.193Z,49.70
2019-05-15T20:34:20.989Z,50.40
2019-05-15T20:39:23.589Z,51.80
2019-05-15T20:44:26.152Z,50.90
2019-05-15T20:49:28.771Z,50.90
2019-05-15T20:54:31.379Z,51.70
2019-05-15T20:59:33.876Z,53.30
2019-05-15T21:04:38.466Z,54.50
2019-05-15T21:09:39.644Z,53.90
2019-05-15T21:14:41.647Z,54.70
2019-05-15T21:19:44.251Z,55.00
2019-05-15T21:24:46.850Z,54.60
2019-05-15T21:29:49.808Z,54.20
2019-05-15T21:34:52.751Z,55.60
2019-05-15T21:39:55.297Z,58.20
2019-05-15T21:44:58.237Z,58.80
2019-05-15T21:50:00.520Z,58.30
2019-05-15T21:55:03.319Z,60.00
2019-05-15T22:00:08.754Z,61.20
2019-05-15T22:05:09.560Z,60.40
2019-05-15T22:10:19.308Z,60.50
2019-05-15T22:15:20.635Z,60.30
2019-05-15T22:20:23.295Z,60.70
2019-05-15T22:25:27.938Z,59.80
2019-05-15T22:30:30.413Z,58.70
2019-05-15T22:35:31.252Z,58.30
2019-05-15T22:40:33.827Z,59.20
2019-05-15T22:45:37.699Z,60.30
2019-05-15T22:50:39.029Z,60.60
2019-05-15T22:55:41.609Z,60.30
2019-05-15T23:00:44.287Z,60.00
2019-05-15T23:05:46.881Z,59.50
2019-05-15T23:10:49.470Z,58.70
2019-05-15T23:15:52.031Z,58.00
2019-05-15T23:20:54.589Z,58.20
2019-05-15T23:25:57.802Z,57.10
2019-05-15T23:30:59.751Z,56.70
2019-05-15T23:36:02.525Z,56.50
2019-05-15T23:41:05.077Z,56.70
2019-05-15T23:46:08.036Z,56.60
2019-05-15T23:51:10.227Z,56.10
2019-05-15T23:56:12.809Z,56.90
